sensor_id;sensor_type;location;lat;lon;timestamp;temperature;humidity
59977;DHT22;45837;51.076;3.578;2023-02-24T00:02:01;19.80;56.00
59977;DHT22;45837;51.076;3.578;2023-02-24T00:04:32;19.70;55.90
59977;DHT22;45837;51.076;3.578;2023-02-24T00:06:58;19.70;55.90
59977;DHT22;45837;51.076;3.578;2023-02-24T00:09:24;19.70;55.90
59977;DHT22;45837;51.076;3.578;2023-02-24T00:11:54;19.70;55.90
59977;DHT22;45837;51.076;3.578;2023-02-24T00:14:20;19.70;56.40
59977;DHT22;45837;51.076;3.578;2023-02-24T00:16:47;19.70;55.90
59977;DHT22;45837;51.076;3.578;2023-02-24T00:19:14;19.70;55.90
59977;DHT22;45837;51.076;3.578;2023-02-24T00:21:41;19.60;55.80
59977;DHT22;45837;51.076;3.578;2023-02-24T00:24:07;19.60;55.80
59977;DHT22;45837;51.076;3.578;2023-02-24T00:26:33;19.70;55.90
59977;DHT22;45837;51.076;3.578;2023-02-24T00:28:58;19.70;55.90
59977;DHT22;45837;51.076;3.578;2023-02-24T00:31:27;19.70;55.90
59977;DHT22;45837;51.076;3.578;2023-02-24T00:33:59;19.70;55.90
59977;DHT22;45837;51.076;3.578;2023-02-24T00:36:26;19.60;55.80
59977;DHT22;45837;51.076;3.578;2023-02-24T00:38:54;19.60;55.80
59977;DHT22;45837;51.076;3.578;2023-02-24T00:41:25;19.60;55.80
59977;DHT22;45837;51.076;3.578;2023-02-24T00:43:54;19.60;56.30
59977;DHT22;45837;51.076;3.578;2023-02-24T00:46:21;19.60;55.80
59977;DHT22;45837;51.076;3.578;2023-02-24T00:48:50;19.50;55.70
59977;DHT22;45837;51.076;3.578;2023-02-24T00:51:20;19.60;55.70
59977;DHT22;45837;51.076;3.578;2023-02-24T00:53:49;19.60;55.70
59977;DHT22;45837;51.076;3.578;2023-02-24T00:56:15;19.60;55.70
59977;DHT22;45837;51.076;3.578;2023-02-24T00:58:42;19.50;55.60
59977;DHT22;45837;51.076;3.578;2023-02-24T01:01:11;19.50;55.60
59977;DHT22;45837;51.076;3.578;2023-02-24T01:03:38;19.50;55.60
59977;DHT22;45837;51.076;3.578;2023-02-24T01:06:04;19.50;55.60
59977;DHT22;45837;51.076;3.578;2023-02-24T01:08:31;19.50;55.60
59977;DHT22;45837;51.076;3.578;2023-02-24T01:11:01;19.50;55.60
59977;DHT22;45837;51.076;3.578;2023-02-24T01:13:46;19.50;55.60
59977;DHT22;45837;51.076;3.578;2023-02-24T01:16:12;19.50;55.60
59977;DHT22;45837;51.076;3.578;2023-02-24T01:18:39;19.50;55.60
59977;DHT22;45837;51.076;3.578;2023-02-24T01:21:05;19.40;56.10
59977;DHT22;45837;51.076;3.578;2023-02-24T01:23:31;19.50;55.50
59977;DHT22;45837;51.076;3.578;2023-02-24T01:25:57;19.40;55.40
59977;DHT22;45837;51.076;3.578;2023-02-24T01:28:26;19.40;55.40
59977;DHT22;45837;51.076;3.578;2023-02-24T01:30:53;19.50;55.40
59977;DHT22;45837;51.076;3.578;2023-02-24T01:33:22;19.40;55.40
59977;DHT22;45837;51.076;3.578;2023-02-24T01:35:47;19.40;55.40
59977;DHT22;45837;51.076;3.578;2023-02-24T01:38:13;19.40;55.40
59977;DHT22;45837;51.076;3.578;2023-02-24T01:40:39;19.40;55.30
59977;DHT22;45837;51.076;3.578;2023-02-24T01:43:05;19.40;55.40
59977;DHT22;45837;51.076;3.578;2023-02-24T01:45:34;19.40;55.40
59977;DHT22;45837;51.076;3.578;2023-02-24T01:48:08;19.40;55.30
59977;DHT22;45837;51.076;3.578;2023-02-24T01:50:34;19.40;55.30
59977;DHT22;45837;51.076;3.578;2023-02-24T01:53:01;19.40;55.30
59977;DHT22;45837;51.076;3.578;2023-02-24T01:55:31;19.40;55.30
59977;DHT22;45837;51.076;3.578;2023-02-24T01:57:57;19.40;55.30
59977;DHT22;45837;51.076;3.578;2023-02-24T02:00:24;19.30;55.20
59977;DHT22;45837;51.076;3.578;2023-02-24T02:03:09;19.40;55.30
59977;DHT22;45837;51.076;3.578;2023-02-24T02:05:36;19.40;55.20
59977;DHT22;45837;51.076;3.578;2023-02-24T02:08:03;19.30;55.20
59977;DHT22;45837;51.076;3.578;2023-02-24T02:10:29;19.30;55.20
59977;DHT22;45837;51.076;3.578;2023-02-24T02:12:56;19.30;55.20
59977;DHT22;45837;51.076;3.578;2023-02-24T02:15:22;19.30;55.20
59977;DHT22;45837;51.076;3.578;2023-02-24T02:25:52;19.30;55.20
59977;DHT22;45837;51.076;3.578;2023-02-24T02:35:55;19.30;55.10
59977;DHT22;45837;51.076;3.578;2023-02-24T02:38:26;19.20;55.10
59977;DHT22;45837;51.076;3.578;2023-02-24T02:43:41;19.20;55.00
59977;DHT22;45837;51.076;3.578;2023-02-24T02:46:13;19.20;55.10
59977;DHT22;45837;51.076;3.578;2023-02-24T02:48:53;19.20;55.00
59977;DHT22;45837;51.076;3.578;2023-02-24T02:51:23;19.20;55.10
59977;DHT22;45837;51.076;3.578;2023-02-24T02:54:01;19.20;55.00
59977;DHT22;45837;51.076;3.578;2023-02-24T02:56:34;19.20;55.00
59977;DHT22;45837;51.076;3.578;2023-02-24T02:59:01;19.20;54.90
59977;DHT22;45837;51.076;3.578;2023-02-24T03:01:29;19.20;54.90
59977;DHT22;45837;51.076;3.578;2023-02-24T03:03:57;19.10;54.90
59977;DHT22;45837;51.076;3.578;2023-02-24T03:06:29;19.10;54.90
59977;DHT22;45837;51.076;3.578;2023-02-24T03:09:02;19.20;54.90
59977;DHT22;45837;51.076;3.578;2023-02-24T03:11:37;19.10;54.80
59977;DHT22;45837;51.076;3.578;2023-02-24T03:14:03;19.20;54.90
59977;DHT22;45837;51.076;3.578;2023-02-24T03:16:30;19.10;54.90
59977;DHT22;45837;51.076;3.578;2023-02-24T03:18:59;19.10;54.90
59977;DHT22;45837;51.076;3.578;2023-02-24T03:24:00;19.10;54.90
59977;DHT22;45837;51.076;3.578;2023-02-24T03:31:48;19.10;54.80
59977;DHT22;45837;51.076;3.578;2023-02-24T03:34:21;19.10;54.80
59977;DHT22;45837;51.076;3.578;2023-02-24T03:36:54;19.10;54.90
59977;DHT22;45837;51.076;3.578;2023-02-24T03:39:20;19.10;54.80
59977;DHT22;45837;51.076;3.578;2023-02-24T03:42:03;19.00;54.80
59977;DHT22;45837;51.076;3.578;2023-02-24T03:44:33;19.00;54.80
59977;DHT22;45837;51.076;3.578;2023-02-24T03:46:59;19.00;54.80
59977;DHT22;45837;51.076;3.578;2023-02-24T03:49:26;19.00;54.80
59977;DHT22;45837;51.076;3.578;2023-02-24T03:57:29;19.00;54.70
59977;DHT22;45837;51.076;3.578;2023-02-24T04:00:03;19.00;54.70
59977;DHT22;45837;51.076;3.578;2023-02-24T04:02:56;19.00;54.70
59977;DHT22;45837;51.076;3.578;2023-02-24T04:05:23;19.00;54.70
59977;DHT22;45837;51.076;3.578;2023-02-24T04:07:59;19.00;54.70
59977;DHT22;45837;51.076;3.578;2023-02-24T04:13:36;19.00;54.70
59977;DHT22;45837;51.076;3.578;2023-02-24T04:15:50;18.90;54.60
59977;DHT22;45837;51.076;3.578;2023-02-24T04:18:22;18.90;54.70
59977;DHT22;45837;51.076;3.578;2023-02-24T04:20:48;18.90;54.70
59977;DHT22;45837;51.076;3.578;2023-02-24T04:23:21;18.90;54.70
59977;DHT22;45837;51.076;3.578;2023-02-24T04:25:49;18.90;54.70
59977;DHT22;45837;51.076;3.578;2023-02-24T04:28:16;18.90;54.60
59977;DHT22;45837;51.076;3.578;2023-02-24T04:30:51;18.90;54.60
59977;DHT22;45837;51.076;3.578;2023-02-24T04:33:18;18.90;54.60
59977;DHT22;45837;51.076;3.578;2023-02-24T04:35:45;18.90;54.60
59977;DHT22;45837;51.076;3.578;2023-02-24T04:38:11;18.90;54.60
59977;DHT22;45837;51.076;3.578;2023-02-24T04:40:36;18.90;54.60
59977;DHT22;45837;51.076;3.578;2023-02-24T04:43:05;18.80;54.50
59977;DHT22;45837;51.076;3.578;2023-02-24T04:45:32;18.90;54.60
59977;DHT22;45837;51.076;3.578;2023-02-24T04:47:58;18.90;54.50
59977;DHT22;45837;51.076;3.578;2023-02-24T04:50:31;18.80;54.50
59977;DHT22;45837;51.076;3.578;2023-02-24T04:52:59;18.80;55.00
59977;DHT22;45837;51.076;3.578;2023-02-24T04:55:25;18.80;54.50
59977;DHT22;45837;51.076;3.578;2023-02-24T04:57:54;18.80;54.50
59977;DHT22;45837;51.076;3.578;2023-02-24T05:00:20;18.80;54.50
59977;DHT22;45837;51.076;3.578;2023-02-24T05:02:50;18.80;54.50
59977;DHT22;45837;51.076;3.578;2023-02-24T05:05:16;18.80;54.50
59977;DHT22;45837;51.076;3.578;2023-02-24T05:07:42;18.80;54.50
59977;DHT22;45837;51.076;3.578;2023-02-24T05:10:12;18.80;54.50
59977;DHT22;45837;51.076;3.578;2023-02-24T05:12:38;18.80;54.50
59977;DHT22;45837;51.076;3.578;2023-02-24T05:15:05;18.80;54.50
59977;DHT22;45837;51.076;3.578;2023-02-24T05:17:31;18.80;54.50
59977;DHT22;45837;51.076;3.578;2023-02-24T05:19:58;18.80;54.50
59977;DHT22;45837;51.076;3.578;2023-02-24T05:22:43;18.80;55.60
59977;DHT22;45837;51.076;3.578;2023-02-24T05:25:08;18.70;54.40
59977;DHT22;45837;51.076;3.578;2023-02-24T05:27:34;18.80;56.20
59977;DHT22;45837;51.076;3.578;2023-02-24T05:30:03;18.70;55.40
59977;DHT22;45837;51.076;3.578;2023-02-24T05:32:31;18.80;55.10
59977;DHT22;45837;51.076;3.578;2023-02-24T05:34:58;18.70;55.50
59977;DHT22;45837;51.076;3.578;2023-02-24T05:37:24;18.70;54.40
59977;DHT22;45837;51.076;3.578;2023-02-24T05:39:53;18.70;54.40
59977;DHT22;45837;51.076;3.578;2023-02-24T05:42:19;18.70;55.40
59977;DHT22;45837;51.076;3.578;2023-02-24T05:44:45;18.70;55.90
59977;DHT22;45837;51.076;3.578;2023-02-24T05:47:11;20.90;55.80
59977;DHT22;45837;51.076;3.578;2023-02-24T05:49:36;18.70;56.60
59977;DHT22;45837;51.076;3.578;2023-02-24T05:52:04;18.70;55.60
59977;DHT22;45837;51.076;3.578;2023-02-24T05:54:38;18.70;55.50
59977;DHT22;45837;51.076;3.578;2023-02-24T05:57:06;18.70;54.90
59977;DHT22;45837;51.076;3.578;2023-02-24T05:59:33;18.60;55.00
59977;DHT22;45837;51.076;3.578;2023-02-24T06:01:59;18.70;55.10
59977;DHT22;45837;51.076;3.578;2023-02-24T06:04:26;18.70;55.40
59977;DHT22;45837;51.076;3.578;2023-02-24T06:07:19;18.60;55.10
59977;DHT22;45837;51.076;3.578;2023-02-24T06:09:47;18.80;55.10
59977;DHT22;45837;51.076;3.578;2023-02-24T06:12:15;18.60;54.80
59977;DHT22;45837;51.076;3.578;2023-02-24T06:14:41;18.70;55.30
59977;DHT22;45837;51.076;3.578;2023-02-24T06:17:07;18.70;55.40
59977;DHT22;45837;51.076;3.578;2023-02-24T06:19:33;18.60;55.40
59977;DHT22;45837;51.076;3.578;2023-02-24T06:21:59;18.60;56.00
59977;DHT22;45837;51.076;3.578;2023-02-24T06:24:29;18.60;55.00
59977;DHT22;45837;51.076;3.578;2023-02-24T06:26:56;18.60;55.00
59977;DHT22;45837;51.076;3.578;2023-02-24T06:29:34;18.50;54.10
59977;DHT22;45837;51.076;3.578;2023-02-24T06:32:01;18.60;54.90
59977;DHT22;45837;51.076;3.578;2023-02-24T06:34:36;18.70;55.20
59977;DHT22;45837;51.076;3.578;2023-02-24T06:37:02;18.60;54.70
59977;DHT22;45837;51.076;3.578;2023-02-24T06:39:31;18.50;54.70
59977;DHT22;45837;51.076;3.578;2023-02-24T06:41:57;18.50;55.10
59977;DHT22;45837;51.076;3.578;2023-02-24T06:44:28;18.50;55.10
59977;DHT22;45837;51.076;3.578;2023-02-24T06:46:54;18.50;55.10
59977;DHT22;45837;51.076;3.578;2023-02-24T06:49:20;18.50;55.40
59977;DHT22;45837;51.076;3.578;2023-02-24T06:51:47;18.50;55.30
59977;DHT22;45837;51.076;3.578;2023-02-24T06:54:15;18.50;55.30
59977;DHT22;45837;51.076;3.578;2023-02-24T06:56:41;18.50;55.30
59977;DHT22;45837;51.076;3.578;2023-02-24T06:59:06;18.50;55.90
59977;DHT22;45837;51.076;3.578;2023-02-24T07:01:36;18.50;54.50
59977;DHT22;45837;51.076;3.578;2023-02-24T07:04:09;18.50;55.00
59977;DHT22;45837;51.076;3.578;2023-02-24T07:06:37;18.60;54.50
59977;DHT22;45837;51.076;3.578;2023-02-24T07:09:06;18.50;54.30
59977;DHT22;45837;51.076;3.578;2023-02-24T07:11:33;18.50;54.30
59977;DHT22;45837;51.076;3.578;2023-02-24T07:13:59;18.40;54.20
59977;DHT22;45837;51.076;3.578;2023-02-24T07:16:25;18.40;54.70
59977;DHT22;45837;51.076;3.578;2023-02-24T07:18:53;18.50;54.80
59977;DHT22;45837;51.076;3.578;2023-02-24T07:21:21;18.50;53.50
59977;DHT22;45837;51.076;3.578;2023-02-24T07:23:48;17.90;53.90
59977;DHT22;45837;51.076;3.578;2023-02-24T07:26:15;18.50;54.50
59977;DHT22;45837;51.076;3.578;2023-02-24T07:28:42;18.50;54.00
59977;DHT22;45837;51.076;3.578;2023-02-24T07:31:09;18.40;53.80
59977;DHT22;45837;51.076;3.578;2023-02-24T07:33:37;18.40;53.70
59977;DHT22;45837;51.076;3.578;2023-02-24T07:36:06;18.40;54.30
59977;DHT22;45837;51.076;3.578;2023-02-24T07:38:42;18.50;55.10
59977;DHT22;45837;51.076;3.578;2023-02-24T07:41:09;18.50;55.20
59977;DHT22;45837;51.076;3.578;2023-02-24T07:43:36;18.50;55.80
59977;DHT22;45837;51.076;3.578;2023-02-24T07:46:06;18.50;56.10
59977;DHT22;45837;51.076;3.578;2023-02-24T07:48:33;18.60;55.80
59977;DHT22;45837;51.076;3.578;2023-02-24T07:50:59;18.70;56.50
59977;DHT22;45837;51.076;3.578;2023-02-24T07:53:25;18.70;56.80
59977;DHT22;45837;51.076;3.578;2023-02-24T07:55:52;18.70;56.80
59977;DHT22;45837;51.076;3.578;2023-02-24T07:58:18;18.80;56.60
59977;DHT22;45837;51.076;3.578;2023-02-24T08:00:45;18.80;56.60
59977;DHT22;45837;51.076;3.578;2023-02-24T08:03:15;18.80;56.70
59977;DHT22;45837;51.076;3.578;2023-02-24T08:05:40;18.80;58.00
59977;DHT22;45837;51.076;3.578;2023-02-24T08:08:08;18.80;57.40
59977;DHT22;45837;51.076;3.578;2023-02-24T08:10:33;18.90;57.00
59977;DHT22;45837;51.076;3.578;2023-02-24T08:13:01;19.00;57.40
59977;DHT22;45837;51.076;3.578;2023-02-24T08:15:28;19.00;57.30
59977;DHT22;45837;51.076;3.578;2023-02-24T08:17:58;19.10;58.30
59977;DHT22;45837;51.076;3.578;2023-02-24T08:20:27;19.10;57.50
59977;DHT22;45837;51.076;3.578;2023-02-24T08:23:22;19.20;57.70
59977;DHT22;45837;51.076;3.578;2023-02-24T08:25:48;19.30;59.30
59977;DHT22;45837;51.076;3.578;2023-02-24T08:28:14;19.40;58.10
59977;DHT22;45837;51.076;3.578;2023-02-24T08:30:40;19.50;57.50
59977;DHT22;45837;51.076;3.578;2023-02-24T08:33:10;19.60;56.50
59977;DHT22;45837;51.076;3.578;2023-02-24T08:35:40;19.70;56.10
59977;DHT22;45837;51.076;3.578;2023-02-24T08:38:19;19.80;56.50
59977;DHT22;45837;51.076;3.578;2023-02-24T08:40:46;19.80;56.00
59977;DHT22;45837;51.076;3.578;2023-02-24T08:43:19;19.90;56.10
59977;DHT22;45837;51.076;3.578;2023-02-24T08:46:13;20.10;55.90
59977;DHT22;45837;51.076;3.578;2023-02-24T08:48:52;20.10;55.60
59977;DHT22;45837;51.076;3.578;2023-02-24T08:53:51;20.30;56.60
59977;DHT22;45837;51.076;3.578;2023-02-24T08:56:27;20.30;55.00
59977;DHT22;45837;51.076;3.578;2023-02-24T08:58:54;20.30;54.30
59977;DHT22;45837;51.076;3.578;2023-02-24T09:01:24;20.40;53.90
59977;DHT22;45837;51.076;3.578;2023-02-24T09:03:54;20.40;53.50
59977;DHT22;45837;51.076;3.578;2023-02-24T09:06:42;20.40;52.70
59977;DHT22;45837;51.076;3.578;2023-02-24T09:09:08;20.50;52.70
59977;DHT22;45837;51.076;3.578;2023-02-24T09:14:14;20.40;52.50
59977;DHT22;45837;51.076;3.578;2023-02-24T09:16:45;20.40;51.90
59977;DHT22;45837;51.076;3.578;2023-02-24T09:19:41;20.40;48.50
59977;DHT22;45837;51.076;3.578;2023-02-24T09:22:26;20.40;48.70
59977;DHT22;45837;51.076;3.578;2023-02-24T09:25:18;20.30;48.70
59977;DHT22;45837;51.076;3.578;2023-02-24T09:28:03;20.40;48.50
59977;DHT22;45837;51.076;3.578;2023-02-24T09:30:33;20.30;47.90
59977;DHT22;45837;51.076;3.578;2023-02-24T09:35:51;20.20;47.50
59977;DHT22;45837;51.076;3.578;2023-02-24T09:38:19;20.20;47.30
59977;DHT22;45837;51.076;3.578;2023-02-24T09:40:46;20.20;47.40
59977;DHT22;45837;51.076;3.578;2023-02-24T09:43:17;20.10;47.40
59977;DHT22;45837;51.076;3.578;2023-02-24T09:45:51;20.10;47.00
59977;DHT22;45837;51.076;3.578;2023-02-24T09:48:20;19.90;46.40
59977;DHT22;45837;51.076;3.578;2023-02-24T09:50:47;19.80;46.70
59977;DHT22;45837;51.076;3.578;2023-02-24T09:53:28;21.00;47.40
59977;DHT22;45837;51.076;3.578;2023-02-24T09:55:58;19.70;46.50
59977;DHT22;45837;51.076;3.578;2023-02-24T10:03:56;19.60;45.60
59977;DHT22;45837;51.076;3.578;2023-02-24T10:06:43;19.50;45.20
59977;DHT22;45837;51.076;3.578;2023-02-24T10:09:17;19.50;45.10
59977;DHT22;45837;51.076;3.578;2023-02-24T10:11:56;19.50;44.50
59977;DHT22;45837;51.076;3.578;2023-02-24T10:16:54;19.40;45.40
59977;DHT22;45837;51.076;3.578;2023-02-24T10:19:43;19.40;45.20
59977;DHT22;45837;51.076;3.578;2023-02-24T10:22:23;19.40;45.50
59977;DHT22;45837;51.076;3.578;2023-02-24T10:30:48;19.30;45.50
59977;DHT22;45837;51.076;3.578;2023-02-24T10:35:40;19.20;43.90
59977;DHT22;45837;51.076;3.578;2023-02-24T10:38:07;19.20;44.20
59977;DHT22;45837;51.076;3.578;2023-02-24T10:40:51;19.20;43.30
59977;DHT22;45837;51.076;3.578;2023-02-24T10:43:22;19.10;42.30
59977;DHT22;45837;51.076;3.578;2023-02-24T10:45:59;19.10;42.70
59977;DHT22;45837;51.076;3.578;2023-02-24T10:48:31;19.00;43.20
59977;DHT22;45837;51.076;3.578;2023-02-24T10:51:07;19.00;43.30
59977;DHT22;45837;51.076;3.578;2023-02-24T10:53:34;19.00;42.70
59977;DHT22;45837;51.076;3.578;2023-02-24T10:56:11;18.90;43.00
59977;DHT22;45837;51.076;3.578;2023-02-24T11:01:50;18.90;42.10
59977;DHT22;45837;51.076;3.578;2023-02-24T11:04:30;18.80;41.80
59977;DHT22;45837;51.076;3.578;2023-02-24T11:07:04;18.80;41.80
59977;DHT22;45837;51.076;3.578;2023-02-24T11:09:36;18.80;41.60
59977;DHT22;45837;51.076;3.578;2023-02-24T11:12:20;18.70;41.80
59977;DHT22;45837;51.076;3.578;2023-02-24T11:15:06;18.70;41.60
59977;DHT22;45837;51.076;3.578;2023-02-24T11:17:58;18.70;42.00
59977;DHT22;45837;51.076;3.578;2023-02-24T11:20:33;18.70;42.70
59977;DHT22;45837;51.076;3.578;2023-02-24T11:23:04;18.60;41.50
59977;DHT22;45837;51.076;3.578;2023-02-24T11:25:39;18.50;42.00
59977;DHT22;45837;51.076;3.578;2023-02-24T11:36:04;18.50;42.40
59977;DHT22;45837;51.076;3.578;2023-02-24T11:41:04;18.50;43.50
59977;DHT22;45837;51.076;3.578;2023-02-24T11:43:32;18.50;42.20
59977;DHT22;45837;51.076;3.578;2023-02-24T11:46:10;18.50;42.50
59977;DHT22;45837;51.076;3.578;2023-02-24T11:48:43;18.50;42.80
59977;DHT22;45837;51.076;3.578;2023-02-24T11:51:21;18.50;42.60
59977;DHT22;45837;51.076;3.578;2023-02-24T11:53:50;18.50;43.00
59977;DHT22;45837;51.076;3.578;2023-02-24T12:01:10;18.50;43.30
59977;DHT22;45837;51.076;3.578;2023-02-24T12:03:43;18.50;43.10
59977;DHT22;45837;51.076;3.578;2023-02-24T12:06:22;18.40;42.50
59977;DHT22;45837;51.076;3.578;2023-02-24T12:08:50;18.50;42.60
59977;DHT22;45837;51.076;3.578;2023-02-24T12:11:28;18.40;42.60
59977;DHT22;45837;51.076;3.578;2023-02-24T12:14:07;18.40;42.70
59977;DHT22;45837;51.076;3.578;2023-02-24T12:16:40;18.40;42.90
59977;DHT22;45837;51.076;3.578;2023-02-24T12:19:17;18.30;43.50
59977;DHT22;45837;51.076;3.578;2023-02-24T12:22:31;18.30;42.90
59977;DHT22;45837;51.076;3.578;2023-02-24T12:24:33;18.30;43.70
59977;DHT22;45837;51.076;3.578;2023-02-24T12:30:07;18.30;43.20
59977;DHT22;45837;51.076;3.578;2023-02-24T12:35:12;18.20;43.40
59977;DHT22;45837;51.076;3.578;2023-02-24T12:38:06;18.20;43.30
59977;DHT22;45837;51.076;3.578;2023-02-24T12:40:54;18.20;43.60
59977;DHT22;45837;51.076;3.578;2023-02-24T12:43:56;18.10;42.90
59977;DHT22;45837;51.076;3.578;2023-02-24T12:49:01;18.10;44.00
59977;DHT22;45837;51.076;3.578;2023-02-24T12:51:48;18.10;43.90
59977;DHT22;45837;51.076;3.578;2023-02-24T12:54:23;18.10;44.10
59977;DHT22;45837;51.076;3.578;2023-02-24T12:59:38;18.10;44.30
59977;DHT22;45837;51.076;3.578;2023-02-24T13:05:03;18.10;45.10
59977;DHT22;45837;51.076;3.578;2023-02-24T13:15:24;18.20;47.10
59977;DHT22;45837;51.076;3.578;2023-02-24T13:17:51;18.20;47.30
59977;DHT22;45837;51.076;3.578;2023-02-24T13:20:31;18.30;47.70
59977;DHT22;45837;51.076;3.578;2023-02-24T13:22:57;18.40;47.80
59977;DHT22;45837;51.076;3.578;2023-02-24T13:25:35;18.40;48.30
59977;DHT22;45837;51.076;3.578;2023-02-24T13:28:03;18.50;48.30
59977;DHT22;45837;51.076;3.578;2023-02-24T13:30:34;18.60;49.20
59977;DHT22;45837;51.076;3.578;2023-02-24T13:33:03;18.70;49.10
59977;DHT22;45837;51.076;3.578;2023-02-24T13:35:30;18.80;49.50
59977;DHT22;45837;51.076;3.578;2023-02-24T13:38:05;19.00;49.30
59977;DHT22;45837;51.076;3.578;2023-02-24T13:40:31;19.00;49.40
59977;DHT22;45837;51.076;3.578;2023-02-24T13:45:23;19.20;50.00
59977;DHT22;45837;51.076;3.578;2023-02-24T14:00:41;20.00;49.60
59977;DHT22;45837;51.076;3.578;2023-02-24T14:03:19;20.10;49.80
59977;DHT22;45837;51.076;3.578;2023-02-24T14:05:46;20.10;50.10
59977;DHT22;45837;51.076;3.578;2023-02-24T14:08:20;20.20;50.40
59977;DHT22;45837;51.076;3.578;2023-02-24T14:10:48;20.20;50.30
59977;DHT22;45837;51.076;3.578;2023-02-24T14:13:16;20.30;50.30
59977;DHT22;45837;51.076;3.578;2023-02-24T14:15:44;20.50;50.30
59977;DHT22;45837;51.076;3.578;2023-02-24T14:18:50;20.50;50.30
59977;DHT22;45837;51.076;3.578;2023-02-24T14:21:03;20.50;50.20
59977;DHT22;45837;51.076;3.578;2023-02-24T14:23:30;20.50;50.80
59977;DHT22;45837;51.076;3.578;2023-02-24T14:26:01;20.60;50.40
59977;DHT22;45837;51.076;3.578;2023-02-24T14:28:31;20.50;50.60
59977;DHT22;45837;51.076;3.578;2023-02-24T14:30:57;20.60;50.90
59977;DHT22;45837;51.076;3.578;2023-02-24T14:33:31;20.50;51.50
59977;DHT22;45837;51.076;3.578;2023-02-24T14:35:57;20.50;50.70
59977;DHT22;45837;51.076;3.578;2023-02-24T14:38:28;20.50;51.00
59977;DHT22;45837;51.076;3.578;2023-02-24T14:40:54;20.50;50.40
59977;DHT22;45837;51.076;3.578;2023-02-24T14:43:20;20.50;51.20
59977;DHT22;45837;51.076;3.578;2023-02-24T14:45:47;20.50;50.80
59977;DHT22;45837;51.076;3.578;2023-02-24T14:48:26;20.60;50.40
59977;DHT22;45837;51.076;3.578;2023-02-24T14:50:53;20.50;50.40
59977;DHT22;45837;51.076;3.578;2023-02-24T14:53:20;20.60;50.80
59977;DHT22;45837;51.076;3.578;2023-02-24T14:55:48;20.60;50.80
59977;DHT22;45837;51.076;3.578;2023-02-24T14:58:23;20.70;50.80
59977;DHT22;45837;51.076;3.578;2023-02-24T15:00:52;20.70;50.60
59977;DHT22;45837;51.076;3.578;2023-02-24T15:03:29;20.80;51.20
59977;DHT22;45837;51.076;3.578;2023-02-24T15:05:58;20.80;51.20
59977;DHT22;45837;51.076;3.578;2023-02-24T15:08:35;20.80;51.40
59977;DHT22;45837;51.076;3.578;2023-02-24T15:11:04;20.90;50.90
59977;DHT22;45837;51.076;3.578;2023-02-24T15:13:35;20.80;51.30
59977;DHT22;45837;51.076;3.578;2023-02-24T15:18:43;20.90;51.30
59977;DHT22;45837;51.076;3.578;2023-02-24T15:21:21;20.80;51.90
59977;DHT22;45837;51.076;3.578;2023-02-24T15:23:47;20.80;50.60
59977;DHT22;45837;51.076;3.578;2023-02-24T15:26:24;20.80;50.90
59977;DHT22;45837;51.076;3.578;2023-02-24T15:28:55;20.80;50.90
59977;DHT22;45837;51.076;3.578;2023-02-24T15:31:21;20.90;51.30
59977;DHT22;45837;51.076;3.578;2023-02-24T15:33:54;20.90;51.90
59977;DHT22;45837;51.076;3.578;2023-02-24T15:36:22;20.90;51.30
59977;DHT22;45837;51.076;3.578;2023-02-24T15:38:53;20.90;51.80
59977;DHT22;45837;51.076;3.578;2023-02-24T15:41:19;20.90;52.10
59977;DHT22;45837;51.076;3.578;2023-02-24T15:43:46;20.90;52.10
59977;DHT22;45837;51.076;3.578;2023-02-24T15:46:19;20.90;51.60
59977;DHT22;45837;51.076;3.578;2023-02-24T15:48:47;20.90;51.70
59977;DHT22;45837;51.076;3.578;2023-02-24T15:51:31;19.10;51.30
59977;DHT22;45837;51.076;3.578;2023-02-24T15:53:58;20.90;52.60
59977;DHT22;45837;51.076;3.578;2023-02-24T15:56:24;20.90;53.00
59977;DHT22;45837;51.076;3.578;2023-02-24T15:58:50;20.90;53.90
59977;DHT22;45837;51.076;3.578;2023-02-24T16:01:15;21.00;53.70
59977;DHT22;45837;51.076;3.578;2023-02-24T16:03:41;21.00;53.60
59977;DHT22;45837;51.076;3.578;2023-02-24T16:06:11;21.00;53.20
59977;DHT22;45837;51.076;3.578;2023-02-24T16:08:38;21.00;52.80
59977;DHT22;45837;51.076;3.578;2023-02-24T16:11:10;21.00;52.80
59977;DHT22;45837;51.076;3.578;2023-02-24T16:13:36;21.00;53.20
59977;DHT22;45837;51.076;3.578;2023-02-24T16:16:02;21.00;53.30
59977;DHT22;45837;51.076;3.578;2023-02-24T16:18:30;21.00;53.20
59977;DHT22;45837;51.076;3.578;2023-02-24T16:20:55;21.00;53.60
59977;DHT22;45837;51.076;3.578;2023-02-24T16:23:21;20.90;54.20
59977;DHT22;45837;51.076;3.578;2023-02-24T16:25:48;21.00;53.70
59977;DHT22;45837;51.076;3.578;2023-02-24T16:28:15;20.90;53.30
59977;DHT22;45837;51.076;3.578;2023-02-24T16:30:41;20.90;53.30
59977;DHT22;45837;51.076;3.578;2023-02-24T16:33:09;20.90;53.50
59977;DHT22;45837;51.076;3.578;2023-02-24T16:35:35;20.90;53.60
59977;DHT22;45837;51.076;3.578;2023-02-24T16:38:03;21.00;53.60
59977;DHT22;45837;51.076;3.578;2023-02-24T16:40:31;21.00;53.60
59977;DHT22;45837;51.076;3.578;2023-02-24T16:43:00;21.00;53.30
59977;DHT22;45837;51.076;3.578;2023-02-24T16:45:27;21.00;54.50
59977;DHT22;45837;51.076;3.578;2023-02-24T16:47:54;21.00;53.50
59977;DHT22;45837;51.076;3.578;2023-02-24T16:50:26;21.10;53.90
59977;DHT22;45837;51.076;3.578;2023-02-24T16:52:53;21.00;53.60
59977;DHT22;45837;51.076;3.578;2023-02-24T16:55:19;21.00;55.20
59977;DHT22;45837;51.076;3.578;2023-02-24T16:57:44;21.00;54.90
59977;DHT22;45837;51.076;3.578;2023-02-24T17:00:12;21.00;55.00
59977;DHT22;45837;51.076;3.578;2023-02-24T17:02:38;21.00;54.50
59977;DHT22;45837;51.076;3.578;2023-02-24T17:05:04;21.00;54.60
59977;DHT22;45837;51.076;3.578;2023-02-24T17:07:30;21.10;55.60
59977;DHT22;45837;51.076;3.578;2023-02-24T17:09:56;21.00;56.00
59977;DHT22;45837;51.076;3.578;2023-02-24T17:12:21;21.10;56.20
59977;DHT22;45837;51.076;3.578;2023-02-24T17:14:47;21.20;56.20
59977;DHT22;45837;51.076;3.578;2023-02-24T17:17:13;21.20;56.30
59977;DHT22;45837;51.076;3.578;2023-02-24T17:19:38;21.20;55.90
59977;DHT22;45837;51.076;3.578;2023-02-24T17:22:04;21.20;54.60
59977;DHT22;45837;51.076;3.578;2023-02-24T17:24:30;21.20;54.70
59977;DHT22;45837;51.076;3.578;2023-02-24T17:26:55;21.20;55.60
59977;DHT22;45837;51.076;3.578;2023-02-24T17:29:25;21.10;55.40
59977;DHT22;45837;51.076;3.578;2023-02-24T17:31:51;21.20;55.50
59977;DHT22;45837;51.076;3.578;2023-02-24T17:34:17;21.10;55.40
59977;DHT22;45837;51.076;3.578;2023-02-24T17:36:45;21.10;55.40
59977;DHT22;45837;51.076;3.578;2023-02-24T17:39:11;21.10;55.60
59977;DHT22;45837;51.076;3.578;2023-02-24T17:41:38;21.00;55.60
59977;DHT22;45837;51.076;3.578;2023-02-24T17:44:03;21.00;55.10
59977;DHT22;45837;51.076;3.578;2023-02-24T17:46:29;21.00;56.50